createdAt,value
2023-03-19T00:02:16.980Z,44.30
2023-03-19T00:04:46.285Z,43.40
2023-03-19T00:07:14.222Z,39.20
2023-03-19T00:09:42.925Z,45.10
2023-03-19T00:12:12.123Z,38.90
2023-03-19T00:14:40.832Z,38.80
2023-03-19T00:17:08.669Z,41.20
2023-03-19T00:19:36.961Z,35.70
2023-03-19T00:22:08.560Z,36.30
2023-03-19T00:24:38.341Z,35.20
2023-03-19T00:27:06.926Z,39.20
2023-03-19T00:29:37.528Z,35.50
2023-03-19T00:32:06.010Z,35.40
2023-03-19T00:34:33.850Z,33.40
2023-03-19T00:37:02.046Z,39.90
2023-03-19T00:39:30.905Z,33.70
2023-03-19T00:41:58.913Z,37.40
2023-03-19T00:44:28.090Z,41.00
2023-03-19T00:46:56.361Z,42.50
2023-03-19T00:49:24.132Z,35.90
2023-03-19T00:51:54.041Z,35.80
2023-03-19T00:54:22.143Z,38.30
2023-03-19T00:56:49.968Z,38.60
2023-03-19T00:59:17.768Z,41.80
2023-03-19T01:01:45.920Z,36.70
2023-03-19T01:04:15.391Z,41.20
2023-03-19T01:06:43.853Z,39.50
2023-03-19T01:09:11.892Z,40.00
2023-03-19T01:11:39.780Z,37.20
2023-03-19T01:14:11.861Z,36.30
2023-03-19T01:16:40.327Z,35.80
2023-03-19T01:19:08.304Z,38.90
2023-03-19T01:21:36.667Z,43.20
2023-03-19T01:24:05.169Z,40.10
2023-03-19T01:26:33.438Z,45.80
2023-03-19T01:29:13.583Z,42.50
2023-03-19T01:31:41.627Z,45.90
2023-03-19T01:34:24.400Z,40.20
2023-03-19T01:36:56.121Z,45.20
2023-03-19T01:39:30.355Z,39.20
2023-03-19T01:42:01.033Z,43.70
2023-03-19T01:44:47.829Z,37.90
2023-03-19T01:47:41.693Z,39.40
2023-03-19T01:50:24.913Z,38.20
2023-03-19T01:53:02.564Z,35.80
2023-03-19T01:55:46.296Z,33.50
2023-03-19T01:58:28.836Z,36.40
2023-03-19T02:01:08.503Z,33.80
2023-03-19T02:03:39.448Z,37.50
2023-03-19T02:06:19.550Z,35.00
2023-03-19T02:08:49.178Z,35.40
2023-03-19T02:11:16.990Z,36.60
2023-03-19T02:13:44.826Z,35.80
2023-03-19T02:16:12.760Z,31.90
2023-03-19T02:18:41.718Z,37.50
2023-03-19T02:21:11.057Z,39.20
2023-03-19T02:23:46.362Z,42.90
2023-03-19T02:26:16.467Z,35.30
2023-03-19T02:28:46.265Z,36.90
2023-03-19T02:31:17.087Z,32.10
2023-03-19T02:33:45.059Z,28.70
2023-03-19T02:36:14.780Z,32.70
2023-03-19T02:38:42.942Z,31.00
2023-03-19T02:41:11.314Z,32.30
2023-03-19T02:43:41.331Z,28.90
2023-03-19T02:46:10.982Z,27.60
2023-03-19T02:48:41.371Z,24.30
2023-03-19T02:51:09.445Z,25.20
2023-03-19T02:53:42.970Z,26.90
2023-03-19T02:56:12.637Z,27.40
2023-03-19T02:58:41.277Z,31.70
2023-03-19T03:01:09.066Z,33.50
2023-03-19T03:03:37.587Z,29.40
2023-03-19T03:06:06.174Z,31.50
2023-03-19T03:08:34.714Z,30.40
2023-03-19T03:11:02.627Z,28.70
2023-03-19T03:13:34.102Z,28.70
2023-03-19T03:16:03.533Z,24.70
2023-03-19T03:18:31.562Z,31.50
2023-03-19T03:21:06.500Z,25.70
2023-03-19T03:23:36.820Z,27.20
2023-03-19T03:26:04.615Z,25.40
2023-03-19T03:28:33.771Z,23.90
2023-03-19T03:31:02.381Z,20.10
2023-03-19T03:33:30.769Z,23.20
2023-03-19T03:35:58.638Z,24.20
2023-03-19T03:38:27.725Z,28.00
2023-03-19T03:40:55.505Z,23.80
2023-03-19T03:43:26.298Z,22.20
2023-03-19T03:45:54.688Z,22.30
2023-03-19T03:48:22.668Z,26.60
2023-03-19T03:50:51.640Z,21.30
2023-03-19T03:53:22.385Z,23.20
2023-03-19T03:55:51.215Z,24.60
2023-03-19T03:58:21.753Z,22.50
2023-03-19T04:00:50.709Z,20.90
2023-03-19T04:03:19.584Z,19.30
2023-03-19T04:05:47.833Z,20.20
2023-03-19T04:08:16.991Z,17.20
2023-03-19T04:10:44.988Z,20.00
2023-03-19T04:13:13.033Z,20.30
2023-03-19T04:15:44.377Z,18.70
2023-03-19T04:18:13.533Z,19.90
2023-03-19T04:20:43.128Z,21.00
2023-03-19T04:23:11.737Z,18.00
2023-03-19T04:25:41.255Z,20.20
2023-03-19T04:28:10.547Z,20.10
2023-03-19T04:30:40.810Z,20.30
2023-03-19T04:33:09.273Z,18.90
2023-03-19T04:35:38.091Z,21.60
2023-03-19T04:38:06.433Z,17.30
2023-03-19T04:40:34.761Z,14.30
2023-03-19T04:43:02.910Z,16.90
2023-03-19T04:45:35.013Z,15.30
2023-03-19T04:48:03.830Z,13.50
2023-03-19T04:50:32.417Z,12.20
2023-03-19T04:54:54.531Z,15.50
2023-03-19T04:57:23.412Z,17.50
2023-03-19T04:59:57.341Z,17.50
2023-03-19T05:02:26.304Z,19.20
2023-03-19T05:04:55.076Z,16.80
2023-03-19T05:07:23.052Z,14.00
2023-03-19T05:09:51.571Z,16.30
2023-03-19T05:12:19.922Z,21.60
2023-03-19T05:14:52.929Z,25.00
2023-03-19T05:17:23.998Z,29.40
2023-03-19T05:20:12.736Z,30.10
2023-03-19T05:22:46.674Z,29.80
2023-03-19T05:25:15.520Z,35.20
2023-03-19T05:27:44.266Z,36.90
2023-03-19T05:30:18.795Z,37.90
2023-03-19T05:33:22.529Z,36.60
2023-03-19T05:35:51.286Z,38.70
2023-03-19T05:38:23.264Z,39.10
2023-03-19T05:41:06.279Z,36.20
2023-03-19T05:43:51.309Z,36.60
2023-03-19T05:46:34.327Z,38.90
2023-03-19T05:49:03.039Z,37.70
2023-03-19T05:51:33.641Z,39.40
2023-03-19T05:54:01.804Z,33.90
2023-03-19T05:56:37.597Z,39.60
2023-03-19T05:59:25.934Z,37.00
2023-03-19T06:02:03.282Z,32.90
2023-03-19T06:04:31.871Z,27.80
2023-03-19T06:07:00.130Z,34.90
2023-03-19T06:09:28.186Z,28.20
2023-03-19T06:12:00.060Z,28.10
2023-03-19T06:14:48.312Z,27.50
2023-03-19T06:17:46.881Z,28.80
2023-03-19T06:20:16.301Z,23.00
2023-03-19T06:22:45.194Z,27.10
2023-03-19T06:25:13.170Z,18.80
2023-03-19T06:27:42.588Z,23.20
2023-03-19T06:30:20.162Z,15.70
2023-03-19T06:32:48.458Z,22.70
2023-03-19T06:35:17.126Z,19.00
2023-03-19T06:37:46.459Z,18.60
2023-03-19T06:40:14.526Z,13.30
2023-03-19T06:42:47.189Z,15.40
2023-03-19T06:45:21.800Z,15.30
2023-03-19T06:47:51.700Z,10.90
2023-03-19T06:50:21.546Z,10.70
2023-03-19T06:52:49.316Z,11.30
2023-03-19T06:55:17.885Z,7.00
2023-03-19T06:57:48.346Z,9.40
2023-03-19T07:00:19.406Z,6.00
2023-03-19T07:02:47.960Z,5.10
2023-03-19T07:05:22.227Z,7.30
2023-03-19T07:07:50.353Z,8.00
2023-03-19T07:10:21.153Z,3.90
2023-03-19T07:12:50.903Z,6.20
2023-03-19T07:15:20.432Z,4.00
2023-03-19T07:17:48.614Z,4.50
2023-03-19T07:20:16.971Z,4.10
2023-03-19T07:22:45.792Z,4.20
2023-03-19T07:25:13.582Z,6.40
2023-03-19T07:27:41.714Z,5.10
2023-03-19T07:30:11.021Z,4.50
2023-03-19T07:32:41.150Z,5.20
2023-03-19T07:35:11.591Z,4.30
2023-03-19T07:37:39.876Z,5.50
2023-03-19T07:40:11.642Z,5.50
2023-03-19T07:42:39.739Z,4.50
2023-03-19T07:45:08.485Z,4.50
2023-03-19T07:47:36.307Z,4.80
2023-03-19T07:50:04.328Z,4.50
2023-03-19T07:52:32.302Z,4.50
2023-03-19T07:55:00.297Z,4.10
2023-03-19T07:57:28.775Z,6.30
2023-03-19T07:59:58.569Z,11.80
2023-03-19T08:02:26.407Z,6.30
2023-03-19T08:04:54.769Z,5.90
2023-03-19T08:07:25.686Z,5.30
2023-03-19T08:09:53.648Z,4.30
2023-03-19T08:12:21.394Z,4.40
2023-03-19T08:14:50.164Z,3.40
2023-03-19T08:17:18.680Z,5.10
2023-03-19T08:19:46.977Z,4.20
2023-03-19T08:22:15.530Z,6.20
2023-03-19T08:24:43.764Z,7.50
2023-03-19T08:27:12.046Z,7.20
2023-03-19T08:29:40.601Z,6.50
2023-03-19T08:32:08.708Z,6.70
2023-03-19T08:34:36.658Z,4.70
2023-03-19T08:37:04.749Z,6.70
2023-03-19T08:39:32.529Z,5.70
2023-03-19T08:42:00.483Z,5.80
2023-03-19T08:44:28.427Z,4.90
2023-03-19T08:46:56.291Z,3.60
2023-03-19T08:49:29.801Z,4.70
2023-03-19T08:51:57.607Z,4.50
2023-03-19T08:54:25.791Z,2.80
2023-03-19T08:56:53.600Z,4.40
2023-03-19T08:59:23.537Z,5.20
2023-03-19T09:01:52.250Z,5.70
2023-03-19T09:04:20.436Z,3.30
2023-03-19T09:06:51.738Z,2.70
2023-03-19T09:09:21.212Z,6.30
2023-03-19T09:11:50.931Z,3.50
2023-03-19T09:14:20.760Z,4.70
2023-03-19T09:16:48.592Z,4.00
2023-03-19T09:19:16.372Z,4.00
2023-03-19T09:21:46.618Z,2.90
2023-03-19T09:24:14.485Z,3.90
2023-03-19T09:26:42.470Z,5.50
2023-03-19T09:29:10.685Z,2.70
2023-03-19T09:31:38.563Z,4.50
2023-03-19T09:34:07.205Z,5.30
2023-03-19T09:36:35.712Z,5.00
2023-03-19T09:39:04.551Z,4.30
2023-03-19T09:41:35.723Z,2.60
2023-03-19T09:44:05.222Z,2.50
2023-03-19T09:46:38.935Z,4.80
2023-03-19T09:49:08.046Z,3.00
2023-03-19T09:51:39.487Z,4.20
2023-03-19T09:54:08.692Z,2.50
2023-03-19T09:56:36.664Z,3.10
2023-03-19T09:59:04.528Z,3.70
2023-03-19T10:01:35.910Z,3.30
2023-03-19T10:04:03.821Z,3.70
2023-03-19T10:06:35.728Z,2.50
2023-03-19T10:09:04.481Z,2.00
2023-03-19T10:11:33.625Z,3.10
2023-03-19T10:14:01.461Z,2.60
2023-03-19T10:16:30.722Z,3.40
2023-03-19T10:18:59.953Z,1.50
2023-03-19T10:21:39.801Z,1.60
2023-03-19T10:24:11.171Z,2.70
2023-03-19T10:26:38.985Z,1.10
2023-03-19T10:29:08.312Z,1.20
2023-03-19T10:31:55.460Z,1.30
2023-03-19T10:34:28.980Z,1.70
2023-03-19T10:37:01.029Z,3.60
2023-03-19T10:39:32.924Z,1.20
2023-03-19T10:42:15.785Z,3.90
2023-03-19T10:44:46.236Z,1.60
2023-03-19T10:47:14.847Z,1.50
2023-03-19T10:49:43.041Z,2.40
2023-03-19T10:52:20.718Z,2.10
2023-03-19T10:54:48.807Z,1.50
2023-03-19T10:57:21.859Z,1.20
2023-03-19T10:59:49.998Z,1.80
2023-03-19T11:02:27.403Z,6.00
2023-03-19T11:05:13.843Z,4.90
2023-03-19T11:07:41.807Z,1.90
2023-03-19T11:10:14.782Z,1.50
2023-03-19T11:12:47.546Z,2.80
2023-03-19T11:15:27.118Z,1.30
2023-03-19T11:17:58.950Z,2.70
2023-03-19T11:20:27.516Z,1.50
2023-03-19T11:23:03.067Z,2.70
2023-03-19T11:25:39.029Z,1.20
2023-03-19T11:28:12.298Z,1.70
2023-03-19T11:30:55.983Z,1.30
2023-03-19T11:33:33.167Z,1.40
2023-03-19T11:36:03.527Z,4.20
2023-03-19T11:38:39.135Z,1.40
2023-03-19T11:41:33.558Z,5.50
2023-03-19T11:44:04.293Z,2.30
2023-03-19T11:46:34.606Z,2.50
2023-03-19T11:49:21.551Z,1.20
2023-03-19T11:51:50.457Z,1.60
2023-03-19T11:54:31.093Z,1.60
2023-03-19T11:57:00.145Z,1.80
2023-03-19T11:59:46.594Z,1.30
2023-03-19T12:02:30.536Z,3.70
2023-03-19T12:07:30.899Z,51.40
2023-03-19T12:10:17.691Z,6.50
2023-03-19T12:12:51.874Z,4.60
2023-03-19T12:15:28.820Z,2.70
2023-03-19T12:18:08.104Z,3.90
2023-03-19T12:20:38.378Z,2.90
2023-03-19T12:23:07.494Z,3.60
2023-03-19T12:25:54.400Z,4.60
2023-03-19T12:28:35.799Z,2.70
2023-03-19T12:31:23.095Z,2.60
2023-03-19T12:33:58.305Z,2.40
2023-03-19T12:36:29.544Z,2.40
2023-03-19T12:38:59.162Z,3.90
2023-03-19T12:41:29.707Z,3.80
2023-03-19T12:43:57.737Z,2.10
2023-03-19T12:46:32.552Z,3.50
2023-03-19T12:49:08.048Z,3.90
2023-03-19T12:51:36.830Z,1.90
2023-03-19T12:54:08.210Z,6.50
2023-03-19T12:56:36.713Z,1.70
2023-03-19T12:59:25.355Z,6.90
2023-03-19T13:02:22.744Z,2.50
2023-03-19T13:04:53.655Z,3.00
2023-03-19T13:07:24.339Z,4.10
2023-03-19T13:10:00.906Z,2.40
2023-03-19T13:12:29.376Z,3.10
2023-03-19T13:15:02.055Z,2.20
2023-03-19T13:17:36.969Z,6.10
2023-03-19T13:20:20.873Z,2.40
2023-03-19T13:22:56.156Z,3.00
2023-03-19T13:25:25.816Z,1.40
2023-03-19T13:27:54.353Z,2.50
2023-03-19T13:30:22.459Z,1.60
2023-03-19T13:32:54.489Z,3.90
2023-03-19T13:35:36.155Z,3.50
2023-03-19T13:38:09.115Z,5.60
2023-03-19T13:40:37.224Z,4.70
2023-03-19T13:43:05.003Z,2.70
2023-03-19T13:45:41.328Z,2.80
2023-03-19T13:48:39.305Z,2.20
2023-03-19T13:51:23.942Z,1.50
2023-03-19T13:53:55.849Z,2.90
2023-03-19T13:56:30.017Z,2.50
2023-03-19T13:59:17.735Z,3.40
2023-03-19T14:01:45.537Z,15.40
2023-03-19T14:04:20.471Z,15.40
2023-03-19T14:06:49.238Z,1.50
2023-03-19T14:09:39.909Z,8.40
2023-03-19T14:12:23.143Z,3.90
2023-03-19T14:14:52.134Z,4.70
2023-03-19T14:17:27.465Z,1.80
2023-03-19T14:19:56.110Z,3.10
2023-03-19T14:22:40.438Z,1.60
2023-03-19T14:25:18.853Z,2.40
2023-03-19T14:27:50.344Z,4.30
2023-03-19T14:30:20.366Z,4.00
2023-03-19T14:32:48.523Z,2.80
2023-03-19T14:35:17.123Z,4.20
2023-03-19T14:37:46.711Z,2.20
2023-03-19T14:40:27.154Z,1.70
2023-03-19T14:43:08.144Z,3.10
2023-03-19T14:45:46.929Z,3.40
2023-03-19T14:48:16.739Z,4.80
2023-03-19T14:50:53.671Z,2.00
2023-03-19T14:53:25.101Z,3.40
2023-03-19T14:55:52.944Z,3.20
2023-03-19T14:58:21.406Z,2.60
2023-03-19T15:00:49.899Z,2.20
2023-03-19T15:03:38.118Z,3.50
2023-03-19T15:06:06.737Z,5.40
2023-03-19T15:08:37.376Z,3.70
2023-03-19T15:11:11.115Z,1.90
2023-03-19T15:13:58.015Z,3.40
2023-03-19T15:19:02.175Z,4.20
2023-03-19T15:21:31.377Z,2.70
2023-03-19T15:23:59.638Z,2.50
2023-03-19T15:26:31.598Z,5.30
2023-03-19T15:29:04.152Z,6.50
2023-03-19T15:31:57.577Z,4.60
2023-03-19T15:34:32.804Z,5.20
2023-03-19T15:37:00.737Z,3.90
2023-03-19T15:39:29.633Z,2.70
2023-03-19T15:42:02.106Z,3.10
2023-03-19T15:44:34.867Z,2.80
2023-03-19T15:47:03.551Z,5.40
2023-03-19T15:49:34.650Z,3.00
2023-03-19T15:52:03.087Z,2.60
2023-03-19T15:54:34.374Z,3.20
2023-03-19T15:57:02.235Z,23.70
2023-03-19T15:59:31.577Z,9.90
2023-03-19T16:02:00.637Z,7.40
2023-03-19T16:04:29.908Z,4.30
2023-03-19T16:06:58.250Z,3.30
2023-03-19T16:09:33.463Z,5.10
2023-03-19T16:12:01.456Z,3.30
2023-03-19T16:14:33.868Z,7.10
2023-03-19T16:17:02.486Z,3.10
2023-03-19T16:19:31.509Z,3.30
2023-03-19T16:22:13.965Z,2.10
2023-03-19T16:24:42.617Z,2.10
2023-03-19T16:27:11.947Z,2.40
2023-03-19T16:29:42.028Z,5.20
2023-03-19T16:32:10.180Z,2.20
2023-03-19T16:34:37.988Z,3.10
2023-03-19T16:37:28.086Z,3.10
2023-03-19T16:39:59.634Z,3.80
2023-03-19T16:42:34.129Z,3.20
2023-03-19T16:45:02.890Z,2.40
2023-03-19T16:47:30.946Z,10.40
2023-03-19T16:49:58.865Z,5.50
2023-03-19T16:52:27.214Z,1.80
2023-03-19T16:54:55.574Z,2.70
2023-03-19T16:57:23.823Z,4.90
2023-03-19T16:59:52.188Z,2.60
2023-03-19T17:02:20.009Z,6.10
2023-03-19T17:04:48.309Z,3.10
2023-03-19T17:07:16.288Z,5.90
2023-03-19T17:12:03.940Z,6.30
2023-03-19T17:14:32.432Z,5.30
2023-03-19T17:17:00.527Z,8.00
2023-03-19T17:19:32.267Z,8.00
2023-03-19T17:22:04.567Z,6.60
2023-03-19T17:24:33.694Z,5.50
2023-03-19T17:27:02.293Z,7.00
2023-03-19T17:29:31.612Z,7.20
2023-03-19T17:32:01.814Z,13.90
2023-03-19T17:34:33.290Z,8.40
2023-03-19T17:37:01.724Z,15.00
2023-03-19T17:39:32.987Z,9.10
2023-03-19T17:42:01.074Z,9.00
2023-03-19T17:44:29.435Z,10.00
2023-03-19T17:46:57.278Z,11.70
2023-03-19T17:49:30.055Z,9.20
2023-03-19T17:51:58.109Z,12.70
2023-03-19T17:54:27.940Z,10.90
2023-03-19T17:56:56.111Z,12.60
2023-03-19T17:59:23.886Z,13.70
2023-03-19T18:01:52.168Z,8.70
2023-03-19T18:04:20.568Z,5.60
2023-03-19T18:06:49.099Z,12.80
2023-03-19T18:09:18.441Z,16.60
2023-03-19T18:11:46.405Z,15.40
2023-03-19T18:14:14.283Z,26.30
2023-03-19T18:16:45.031Z,18.90
2023-03-19T18:19:33.158Z,25.60
2023-03-19T18:22:00.995Z,27.70
2023-03-19T18:24:28.908Z,24.40
2023-03-19T18:26:56.695Z,26.40
2023-03-19T18:29:24.533Z,24.60
2023-03-19T18:31:52.627Z,40.60
2023-03-19T18:34:20.570Z,33.10
2023-03-19T18:36:49.160Z,45.50
2023-03-19T18:39:17.349Z,53.90
2023-03-19T18:41:45.331Z,52.30
2023-03-19T18:44:13.911Z,53.00
2023-03-19T18:46:41.947Z,47.50
2023-03-19T18:49:24.450Z,45.90
2023-03-19T18:52:02.183Z,43.30
2023-03-19T18:54:31.320Z,45.50
2023-03-19T18:57:02.699Z,39.80
2023-03-19T18:59:33.007Z,35.20
2023-03-19T19:02:04.084Z,32.10
2023-03-19T19:04:32.967Z,26.00
2023-03-19T19:07:01.744Z,23.90
2023-03-19T19:09:31.098Z,21.10
2023-03-19T19:12:00.782Z,24.10
2023-03-19T19:14:28.996Z,20.80
2023-03-19T19:16:57.163Z,20.80
2023-03-19T19:19:25.691Z,25.90
2023-03-19T19:21:54.238Z,17.80
2023-03-19T19:24:22.132Z,21.70
2023-03-19T19:26:53.405Z,20.60
2023-03-19T19:29:25.365Z,29.50
2023-03-19T19:31:53.715Z,34.50
2023-03-19T19:34:22.260Z,33.90
2023-03-19T19:36:51.027Z,34.00
2023-03-19T19:39:19.150Z,37.10
2023-03-19T19:41:47.954Z,47.80
2023-03-19T19:44:18.141Z,32.00
2023-03-19T19:46:46.284Z,30.50
2023-03-19T19:49:14.584Z,32.30
2023-03-19T19:51:42.897Z,43.10
2023-03-19T19:54:10.922Z,46.30
2023-03-19T19:56:44.512Z,54.40
2023-03-19T19:59:13.992Z,37.30
2023-03-19T20:01:42.009Z,44.80
2023-03-19T20:04:13.634Z,34.20
2023-03-19T20:06:42.743Z,37.20
2023-03-19T20:09:11.245Z,32.90
2023-03-19T20:11:40.054Z,34.90
2023-03-19T20:14:08.485Z,41.50
2023-03-19T20:16:39.043Z,46.80
2023-03-19T20:19:06.943Z,39.70
2023-03-19T20:21:34.890Z,37.50
2023-03-19T20:24:03.109Z,37.10
2023-03-19T20:26:31.221Z,33.30
2023-03-19T20:28:59.053Z,37.70
2023-03-19T20:31:28.166Z,31.70
2023-03-19T20:33:57.447Z,34.70
2023-03-19T20:36:26.735Z,32.40
2023-03-19T20:38:54.660Z,32.90
2023-03-19T20:41:24.713Z,28.90
2023-03-19T20:43:52.692Z,36.90
2023-03-19T20:46:20.842Z,35.20
2023-03-19T20:48:49.052Z,45.00
2023-03-19T20:51:19.449Z,34.40
2023-03-19T20:53:51.648Z,31.60
2023-03-19T20:56:24.470Z,31.00
2023-03-19T20:58:53.692Z,31.20
2023-03-19T21:01:21.972Z,39.10
2023-03-19T21:03:49.983Z,39.20
2023-03-19T21:06:18.222Z,41.20
2023-03-19T21:08:54.504Z,39.00
2023-03-19T21:11:29.735Z,32.50
2023-03-19T21:13:58.956Z,36.10
2023-03-19T21:16:29.154Z,33.30
2023-03-19T21:18:58.982Z,34.10
2023-03-19T21:21:31.349Z,38.50
2023-03-19T21:24:04.035Z,35.10
2023-03-19T21:26:32.112Z,33.20
2023-03-19T21:29:01.109Z,28.90
2023-03-19T21:31:29.505Z,32.90
2023-03-19T21:33:58.571Z,27.50
2023-03-19T21:36:27.610Z,30.60
2023-03-19T21:38:55.516Z,39.10
2023-03-19T21:41:30.165Z,28.20
2023-03-19T21:43:59.694Z,33.30
2023-03-19T21:46:28.957Z,41.30
2023-03-19T21:48:57.254Z,40.60
2023-03-19T21:51:26.423Z,44.60
2023-03-19T21:53:55.317Z,48.50
2023-03-19T21:56:25.090Z,51.10
2023-03-19T21:58:53.142Z,49.30
2023-03-19T22:01:22.494Z,56.00
2023-03-19T22:03:51.012Z,48.90
2023-03-19T22:06:19.183Z,57.20
2023-03-19T22:08:48.751Z,48.30
2023-03-19T22:11:16.724Z,51.90
2023-03-19T22:13:44.738Z,55.10
2023-03-19T22:16:18.224Z,43.50
2023-03-19T22:18:47.836Z,50.70
2023-03-19T22:21:16.578Z,47.80
2023-03-19T22:23:44.960Z,46.50
2023-03-19T22:26:22.098Z,45.20
2023-03-19T22:28:50.101Z,46.20
2023-03-19T22:31:18.354Z,45.50
2023-03-19T22:33:48.749Z,44.20
2023-03-19T22:36:16.773Z,41.80
2023-03-19T22:38:45.233Z,45.40
2023-03-19T22:41:17.552Z,42.00
2023-03-19T22:43:45.629Z,44.30
2023-03-19T22:46:14.986Z,45.60
2023-03-19T22:48:48.063Z,49.40
2023-03-19T22:51:17.304Z,49.70
2023-03-19T22:53:45.449Z,39.00
2023-03-19T22:56:13.762Z,50.30
2023-03-19T22:58:41.812Z,44.90
2023-03-19T23:01:29.214Z,47.40
2023-03-19T23:03:57.544Z,50.20
2023-03-19T23:06:30.874Z,56.40
2023-03-19T23:08:59.730Z,48.70
2023-03-19T23:11:27.555Z,45.90
2023-03-19T23:13:56.682Z,50.70
2023-03-19T23:16:25.364Z,50.90
2023-03-19T23:21:21.539Z,60.70
2023-03-19T23:23:49.774Z,53.80
2023-03-19T23:26:25.942Z,63.30
2023-03-19T23:28:54.549Z,57.30
2023-03-19T23:31:22.596Z,60.30
2023-03-19T23:33:52.789Z,54.20
2023-03-19T23:36:20.834Z,62.10
2023-03-19T23:38:51.707Z,57.00
2023-03-19T23:41:21.252Z,58.40
2023-03-19T23:43:49.028Z,54.70
2023-03-19T23:46:16.999Z,56.40
2023-03-19T23:48:45.535Z,52.50
2023-03-19T23:51:15.474Z,58.10
2023-03-19T23:53:44.593Z,51.40
2023-03-19T23:56:20.001Z,54.90
2023-03-19T23:58:48.411Z,45.80
